createdAt,value
2022-12-16T15:53:50.124Z,-0.70
2022-12-16T15:56:38.022Z,-0.70
2022-12-16T15:59:48.331Z,-0.70
2022-12-16T16:02:37.755Z,-0.60
2022-12-16T16:05:30.540Z,-0.30
2022-12-16T16:08:16.083Z,-0.40
2022-12-16T16:11:03.429Z,-0.50
2022-12-16T16:13:48.883Z,-0.30
2022-12-16T16:16:34.656Z,-0.40
2022-12-16T16:19:20.512Z,-0.50
2022-12-16T16:22:05.826Z,-0.80
2022-12-16T16:24:51.056Z,-0.40
2022-12-16T16:27:38.374Z,-0.50
2022-12-16T16:30:24.897Z,-0.40
2022-12-16T16:33:15.250Z,-0.70
2022-12-16T16:36:00.791Z,-0.40
2022-12-16T16:38:45.960Z,-0.80
2022-12-16T16:41:34.200Z,-0.80
2022-12-16T16:44:21.103Z,-0.40
2022-12-16T16:47:06.952Z,-0.70
2022-12-16T16:49:58.731Z,-0.60
2022-12-16T16:52:45.473Z,-0.80
2022-12-16T16:55:32.859Z,-0.90
2022-12-16T16:58:18.643Z,-0.70
2022-12-16T17:01:05.431Z,-0.70
2022-12-16T17:03:50.891Z,-0.90
2022-12-16T17:06:32.838Z,-0.80
2022-12-16T17:09:18.247Z,-0.90
2022-12-16T17:12:03.628Z,-1.00
2022-12-16T17:15:00.251Z,-1.00
2022-12-16T17:17:47.036Z,-1.00
2022-12-16T17:20:34.780Z,-0.80
2022-12-16T17:23:20.425Z,-1.00
2022-12-16T17:26:05.616Z,-1.20
2022-12-16T17:28:50.887Z,-1.00
2022-12-16T17:31:36.184Z,-1.20
2022-12-16T17:34:23.148Z,-0.90
2022-12-16T17:37:08.352Z,-1.00
2022-12-16T17:39:53.560Z,-1.30
2022-12-16T17:42:43.216Z,-1.00
2022-12-16T17:45:34.043Z,-1.00
2022-12-16T17:48:19.496Z,-1.20
2022-12-16T17:51:05.989Z,-1.20
2022-12-16T17:53:55.717Z,-1.30
2022-12-16T17:56:43.910Z,-1.30
2022-12-16T17:59:29.126Z,-1.20
2022-12-16T18:02:14.496Z,-1.50
2022-12-16T18:04:59.726Z,-1.60
2022-12-16T18:07:52.001Z,-1.20
2022-12-16T18:10:39.636Z,-1.50
2022-12-16T18:13:24.918Z,-1.60
2022-12-16T18:16:11.458Z,-1.30
2022-12-16T18:18:56.769Z,-1.40
2022-12-16T18:21:42.034Z,-1.60
2022-12-16T18:24:29.235Z,-1.50
2022-12-16T18:27:14.462Z,-1.60
2022-12-16T18:30:02.153Z,-1.70
2022-12-16T18:32:47.596Z,-1.90
2022-12-16T18:35:32.875Z,-1.80
2022-12-16T18:38:18.230Z,-1.80
2022-12-16T18:41:04.830Z,-1.50
2022-12-16T18:43:50.256Z,-1.70
2022-12-16T18:46:35.774Z,-1.70
2022-12-16T18:49:21.524Z,-1.70
2022-12-16T18:52:06.715Z,-1.80
2022-12-16T18:54:51.942Z,-1.80
2022-12-16T18:57:39.979Z,-1.70
2022-12-16T19:00:26.955Z,-1.80
2022-12-16T19:03:12.427Z,-1.90
2022-12-16T19:05:58.182Z,-1.80
2022-12-16T19:08:43.547Z,-1.70
2022-12-16T19:11:28.907Z,-2.00
2022-12-16T19:14:15.608Z,-1.90
2022-12-16T19:16:57.386Z,-1.90
2022-12-16T19:19:42.819Z,-1.90
2022-12-16T19:22:27.905Z,-1.80
2022-12-16T19:25:13.082Z,-1.70
2022-12-16T19:27:58.595Z,-1.90
2022-12-16T19:30:45.535Z,-2.10
2022-12-16T19:33:30.911Z,-2.10
2022-12-16T19:36:16.177Z,-2.10
2022-12-16T19:39:03.068Z,-2.40
2022-12-16T19:41:48.405Z,-2.40
2022-12-16T19:44:33.660Z,-2.20
2022-12-16T19:47:20.463Z,-2.30
2022-12-16T19:50:05.605Z,-2.20
2022-12-16T19:52:50.921Z,-2.20
2022-12-16T19:55:37.232Z,-2.30
2022-12-16T19:58:22.779Z,-2.50
2022-12-16T20:01:08.589Z,-2.30
2022-12-16T20:03:56.657Z,-2.40
2022-12-16T20:06:42.465Z,-2.40
2022-12-16T20:09:28.013Z,-2.70
2022-12-16T20:12:13.455Z,-2.60
2022-12-16T20:14:59.023Z,-2.70
2022-12-16T20:17:44.211Z,-2.80
2022-12-16T20:20:30.994Z,-2.30
2022-12-16T20:23:16.377Z,-2.50
2022-12-16T20:26:02.118Z,-2.70
2022-12-16T20:28:47.946Z,-2.80
2022-12-16T20:31:33.469Z,-2.80
2022-12-16T20:34:18.882Z,-2.80
2022-12-16T20:37:06.198Z,-2.60
2022-12-16T20:39:56.821Z,-2.80
2022-12-16T20:42:42.625Z,-2.50
2022-12-16T20:45:28.249Z,-3.30
2022-12-16T20:48:13.554Z,-2.80
2022-12-16T20:50:58.977Z,-2.80
2022-12-16T20:53:46.074Z,-2.80
2022-12-16T20:56:31.899Z,-2.40
2022-12-16T20:59:17.567Z,-2.90
2022-12-16T21:02:22.753Z,-2.90
